Airfield :
LOGIN :

Register | Disclaimer

   EN    FR    IT 

 










Legend :    VFR   Marginal VFR   IFR   Intensive IFR   Very Intensive IFR
Visi :
Ceiling :
>= 8 km
>= 3000ft
5 to 8 km
1000 to 3000 ft
1500m to 5 km
500 to 1000 ft
800 to 1500m
200 to 500 ft
< 800m
< 200 ft
Symbols :   Thunderstorms  Fog  Heavy snow  Heavy precipitations  Wind > 20 kt
SIGMETs :     Misc.  Thunderstorms  Icing  Turbulence  Mountain Waves  Volcanic Ashes







- Airport Elevation : 1649 ft
- IATA code : HHN


EDFH - Frankfurt-Hahn Rhineland-Palatinate

CURRENT METAR :
  • 181620Z 31004KT 240V040 CAVOK 26/13 Q1014

EXPIRED METARs :
  • 181550Z 29004KT 250V360 CAVOK 25/14 Q1014
  • 181520Z 25005KT 230V290 CAVOK 25/13 Q1014
  • 181450Z 21005KT 170V290 CAVOK 25/12 Q1014
  • 181420Z 23005KT 170V270 CAVOK 25/12 Q1015
  • 181350Z 13006KT 080V210 CAVOK 25/14 Q1015

TAF AMD TAF EDFH
Valid from the 18 at 15:00 until the 19 at 12:00 UTC


181500Z 1815/1912 22005KT CAVOK
No reported NOTAMs for that airfield.



MET'MAP, your aeronautical weather chart ! - Copyright ORBIFLY December 2007 - Disclaimer

ORBIFLY MET'MAP TEAM :

Programming & Development : Alexandra Zaïnal
Concept & Development : Baudouin d'Aumeries
Co-Development & Prog : Marc-Olivier Méhu
Technical & hardware support : Manuel Goepfert

Contact : metmap@orbifly.com




SOURCES & CREDITS :

   NOAA